Погода Андрадинана 2 недели

Сан-Паулу, Бразилия

13 - 26 июля
  • 13июля
    Сегодня
    +14°
    +27°
    Небольшая облачность
    ВремяПогодаТемператураВлажностьДавлениеВетер, м/сВероятность осадков
    00:00Облачно с прояснениями+17°C82 %738 мм3.1 м/с5 %
    03:00Небольшая облачность+15°C89 %737 мм2.8 м/с5 %
    06:00Практически безоблачно+15°C95 %737 мм2.2 м/с5 %
    09:00Ясно и безоблачно+18°C74 %738 мм2.9 м/с5 %
    12:00Ясно и безоблачно+25°C53 %738 мм2.5 м/с5 %
    15:00Небольшая облачность+27°C48 %736 мм1.7 м/с5 %
    18:00Облачно с прояснениями+26°C52 %735 мм0.7 м/с5 %
    21:00Ясно и безоблачно+21°C73 %736 мм3.4 м/с5 %
  • 14июля
    Воскресенье
    +14°
    +26°
    Ясно и безоблачно
    ВремяПогодаТемператураВлажностьДавлениеВетер, м/сВероятность осадков
    00:00Ясно и безоблачно+18°C84 %737 мм3.7 м/с5 %
    03:00Небольшая облачность+16°C90 %736 мм3.6 м/с5 %
    06:00Ясно и безоблачно+15°C96 %736 мм2.7 м/с5 %
    09:00Ясно и безоблачно+17°C82 %737 мм2.2 м/с5 %
    12:00Ясно и безоблачно+23°C59 %737 мм1.7 м/с5 %
    15:00Ясно и безоблачно+26°C51 %735 мм1.9 м/с5 %
    18:00Практически безоблачно+23°C63 %736 мм2.8 м/с5 %
    21:00Практически безоблачно+19°C77 %737 мм2.8 м/с5 %
  • 15июля
    Понедельник
    +16°
    +27°
    Ясно и безоблачно
    ВремяПогодаТемператураВлажностьДавлениеВетер, м/сВероятность осадков
    00:00Ясно и безоблачно+17°C84 %737 мм3.7 м/с5 %
    03:00Ясно и безоблачно+16°C91 %736 мм2.9 м/с5 %
    06:00Ясно и безоблачно+15°C95 %736 мм2.3 м/с5 %
    09:00Ясно и безоблачно+17°C79 %739 мм2.0 м/с5 %
    12:00Ясно и безоблачно+23°C59 %739 мм1.1 м/с5 %
    15:00Ясно и безоблачно+26°C49 %737 мм1.3 м/с3 %
    18:00Практически безоблачно+24°C59 %737 мм2.1 м/с5 %
    21:00Практически безоблачно+20°C76 %738 мм3.2 м/с5 %
  • 16июля
    Вторник
    +17°
    +29°
    Небольшая облачность
    ВремяПогодаТемператураВлажностьДавлениеВетер, м/сВероятность осадков
    00:00Облачно с прояснениями+18°C85 %738 мм2.2 м/с5 %
    03:00Облачно с прояснениями+17°C93 %737 мм2.5 м/с5 %
    06:00Облачно с прояснениями+17°C94 %737 мм2.4 м/с5 %
    09:00Ясно и безоблачно+20°C73 %738 мм3.0 м/с5 %
    12:00Ясно и безоблачно+27°C47 %738 мм2.3 м/с5 %
    15:00Небольшая облачность+28°C32 %736 мм2.0 м/с5 %
    18:00Ясно и безоблачно+25°C47 %736 мм2.0 м/с5 %
    21:00Ясно и безоблачно+22°C58 %737 мм2.2 м/с5 %
  • 17июля
    Среда
    +18°
    +31°
    Ясно и безоблачно
    ВремяПогодаТемператураВлажностьДавлениеВетер, м/сВероятность осадков
    00:00Ясно и безоблачно+19°C66 %737 мм2.4 м/с5 %
    03:00Ясно и безоблачно+19°C70 %737 мм2.8 м/с5 %
    06:00Небольшая облачность+17°C81 %737 мм2.4 м/с5 %
    09:00Ясно и безоблачно+21°C69 %739 мм2.7 м/с5 %
    12:00Ясно и безоблачно+28°C41 %739 мм2.1 м/с5 %
    15:00Ясно и безоблачно+30°C31 %736 мм1.3 м/с5 %
    18:00Ясно и безоблачно+28°C40 %736 мм1.7 м/с5 %
    21:00Ясно и безоблачно+23°C57 %736 мм2.2 м/с5 %
Мы используем cookies
Соглашаюсь